createdAt,value
2019-02-25T00:00:18.720Z,998.63
2019-02-25T00:01:18.705Z,998.68
2019-02-25T00:02:18.713Z,998.65
2019-02-25T00:03:18.722Z,998.60
2019-02-25T00:04:18.674Z,998.54
2019-02-25T00:05:18.662Z,998.65
2019-02-25T00:06:18.654Z,998.67
2019-02-25T00:07:18.644Z,998.57
2019-02-25T00:08:18.654Z,998.53
2019-02-25T00:09:18.691Z,998.54
2019-02-25T00:10:18.611Z,998.64
2019-02-25T00:11:18.603Z,998.53
2019-02-25T00:12:18.589Z,998.57
2019-02-25T00:13:18.574Z,998.59
2019-02-25T00:14:31.150Z,998.58
2019-02-25T00:15:18.554Z,998.57
2019-02-25T00:16:18.544Z,998.56
2019-02-25T00:17:19.100Z,998.52
2019-02-25T00:18:18.524Z,998.55
2019-02-25T00:19:18.522Z,998.56
2019-02-25T00:20:18.583Z,998.51
2019-02-25T00:21:18.493Z,998.47
2019-02-25T00:22:18.490Z,998.48
2019-02-25T00:23:18.465Z,998.43
2019-02-25T00:24:18.459Z,998.46
2019-02-25T00:25:18.443Z,998.46
2019-02-25T00:26:18.453Z,998.44
2019-02-25T00:27:18.435Z,998.44
2019-02-25T00:28:18.416Z,998.42
2019-02-25T00:29:18.403Z,998.40
2019-02-25T00:30:18.389Z,998.37
2019-02-25T00:31:18.377Z,998.43
2019-02-25T00:32:18.391Z,998.50
2019-02-25T00:33:18.371Z,998.42
2019-02-25T00:34:18.351Z,998.39
2019-02-25T00:35:18.343Z,998.45
2019-02-25T00:36:18.328Z,998.36
2019-02-25T00:37:18.318Z,998.39
2019-02-25T00:38:18.349Z,998.37
2019-02-25T00:39:18.319Z,998.29
2019-02-25T00:40:18.286Z,998.39
2019-02-25T00:41:18.278Z,998.13
2019-02-25T00:42:18.272Z,998.30
2019-02-25T00:43:18.248Z,998.30
2019-02-25T00:44:18.276Z,998.16
2019-02-25T00:45:29.617Z,998.11
2019-02-25T00:46:18.221Z,998.28
2019-02-25T00:47:18.210Z,998.21
2019-02-25T00:48:18.198Z,998.11
2019-02-25T00:49:18.187Z,998.10
2019-02-25T00:50:18.363Z,998.05
2019-02-25T00:51:18.164Z,998.13
2019-02-25T00:52:18.154Z,997.98
2019-02-25T00:53:18.163Z,997.97
2019-02-25T00:54:18.135Z,998.15
2019-02-25T00:55:18.121Z,998.04
2019-02-25T00:56:18.146Z,997.99
2019-02-25T00:57:18.107Z,997.93
2019-02-25T00:58:18.101Z,998.01
2019-02-25T00:59:18.083Z,997.98
2019-02-25T01:00:18.104Z,998.06
2019-02-25T01:01:18.054Z,998.00
2019-02-25T01:02:18.082Z,997.99
2019-02-25T01:03:18.034Z,997.93
2019-02-25T01:04:18.049Z,997.95
2019-02-25T01:05:18.010Z,997.99
2019-02-25T01:06:17.999Z,998.10
2019-02-25T01:07:18.029Z,998.25
2019-02-25T01:08:18.024Z,998.04
2019-02-25T01:09:17.966Z,997.85
2019-02-25T01:10:17.986Z,997.97
2019-02-25T01:11:17.945Z,997.92
2019-02-25T01:12:17.936Z,997.94
2019-02-25T01:13:17.925Z,997.91
2019-02-25T01:14:17.955Z,997.90
2019-02-25T01:15:17.917Z,998.01
2019-02-25T01:16:29.650Z,997.95
2019-02-25T01:17:17.880Z,997.91
2019-02-25T01:18:17.874Z,997.94
2019-02-25T01:19:17.864Z,997.96
2019-02-25T01:20:17.888Z,997.76
2019-02-25T01:21:17.865Z,997.78
2019-02-25T01:22:17.825Z,997.95
2019-02-25T01:23:18.647Z,997.85
2019-02-25T01:24:17.834Z,997.86
2019-02-25T01:25:17.801Z,997.75
2019-02-25T01:26:17.817Z,997.86
2019-02-25T01:27:17.773Z,997.83
2019-02-25T01:28:17.765Z,997.77
2019-02-25T01:29:17.765Z,997.79
2019-02-25T01:30:17.744Z,997.72
2019-02-25T01:31:17.731Z,997.69
2019-02-25T01:32:17.732Z,997.74
2019-02-25T01:33:17.719Z,997.71
2019-02-25T01:34:17.702Z,997.80
2019-02-25T01:35:17.696Z,997.62
2019-02-25T01:36:17.675Z,997.69
2019-02-25T01:37:17.682Z,997.59
2019-02-25T01:38:17.659Z,997.69
2019-02-25T01:39:17.641Z,997.64
2019-02-25T01:40:17.638Z,997.64
2019-02-25T01:41:17.644Z,997.72
2019-02-25T01:42:17.610Z,997.65
2019-02-25T01:43:17.637Z,997.69
2019-02-25T01:44:17.587Z,997.67
2019-02-25T01:45:17.578Z,997.58
2019-02-25T01:46:17.570Z,997.63
2019-02-25T01:47:28.731Z,997.59
2019-02-25T01:48:17.549Z,997.59
2019-02-25T01:49:17.572Z,997.53
2019-02-25T01:50:17.526Z,997.54
2019-02-25T01:51:17.516Z,997.48
2019-02-25T01:52:17.513Z,997.50
2019-02-25T01:53:17.494Z,997.48
2019-02-25T01:54:17.478Z,997.48
2019-02-25T01:55:17.518Z,997.44
2019-02-25T01:56:17.460Z,997.45
2019-02-25T01:57:17.450Z,997.56
2019-02-25T01:58:17.438Z,997.56
2019-02-25T01:59:17.425Z,997.42
2019-02-25T02:00:17.446Z,997.55
2019-02-25T02:01:17.411Z,997.49
2019-02-25T02:02:17.398Z,997.48
2019-02-25T02:03:17.386Z,997.53
2019-02-25T02:04:17.375Z,997.44
2019-02-25T02:05:17.363Z,997.54
2019-02-25T02:06:17.399Z,997.60
2019-02-25T02:07:17.340Z,997.46
2019-02-25T02:08:17.328Z,997.54
2019-02-25T02:09:17.315Z,997.51
2019-02-25T02:10:17.310Z,997.44
2019-02-25T02:11:17.300Z,997.63
2019-02-25T02:12:17.472Z,997.42
2019-02-25T02:13:17.271Z,997.50
2019-02-25T02:14:17.260Z,997.54
2019-02-25T02:15:17.316Z,997.40
2019-02-25T02:16:17.239Z,997.33
2019-02-25T02:17:17.229Z,997.42
2019-02-25T02:18:27.260Z,997.49
2019-02-25T02:19:17.212Z,997.46
2019-02-25T02:20:17.198Z,997.45
2019-02-25T02:21:17.188Z,997.43
2019-02-25T02:22:17.180Z,997.40
2019-02-25T02:23:17.177Z,997.41
2019-02-25T02:24:17.195Z,997.45
2019-02-25T02:25:17.141Z,997.39
2019-02-25T02:26:17.150Z,997.39
2019-02-25T02:27:17.124Z,997.36
2019-02-25T02:28:17.112Z,997.27
2019-02-25T02:29:17.219Z,997.30
2019-02-25T02:30:17.125Z,997.45
2019-02-25T02:31:17.092Z,997.36
2019-02-25T02:32:17.069Z,997.38
2019-02-25T02:33:17.054Z,997.51
2019-02-25T02:34:17.045Z,997.49
2019-02-25T02:35:17.039Z,997.47
2019-02-25T02:36:17.035Z,997.66
2019-02-25T02:37:17.021Z,997.62
2019-02-25T02:38:17.001Z,997.36
2019-02-25T02:39:16.992Z,997.57
2019-02-25T02:40:16.984Z,997.49
2019-02-25T02:41:17.003Z,997.55
2019-02-25T02:42:16.954Z,997.57
2019-02-25T02:43:16.960Z,997.43
2019-02-25T02:44:16.937Z,997.38
2019-02-25T02:45:16.926Z,997.38
2019-02-25T02:46:16.921Z,997.35
2019-02-25T02:47:16.936Z,997.39
2019-02-25T02:48:16.895Z,997.36
2019-02-25T02:49:27.594Z,997.18
2019-02-25T02:50:16.872Z,997.25
2019-02-25T02:51:16.864Z,997.27
2019-02-25T02:52:16.847Z,997.23
2019-02-25T02:53:16.874Z,997.09
2019-02-25T02:54:16.841Z,997.14
2019-02-25T02:55:16.819Z,997.27
2019-02-25T02:56:16.803Z,997.25
2019-02-25T02:57:16.802Z,997.27
2019-02-25T02:58:16.788Z,997.13
2019-02-25T02:59:16.789Z,997.26
2019-02-25T03:00:16.763Z,997.17
2019-02-25T03:01:16.754Z,997.09
2019-02-25T03:02:16.759Z,997.15
2019-02-25T03:03:16.731Z,997.17
2019-02-25T03:04:16.719Z,997.03
2019-02-25T03:05:16.752Z,997.01
2019-02-25T03:06:16.696Z,996.97
2019-02-25T03:07:16.685Z,997.08
2019-02-25T03:08:16.680Z,997.12
2019-02-25T03:09:16.679Z,997.05
2019-02-25T03:10:16.658Z,997.10
2019-02-25T03:11:16.679Z,997.00
2019-02-25T03:12:16.631Z,996.97
2019-02-25T03:13:16.623Z,997.02
2019-02-25T03:14:16.626Z,997.04
2019-02-25T03:15:16.597Z,997.00
2019-02-25T03:16:16.591Z,997.08
2019-02-25T03:17:16.746Z,997.03
2019-02-25T03:18:16.571Z,996.94
2019-02-25T03:19:16.562Z,996.99
2019-02-25T03:20:26.774Z,996.98
2019-02-25T03:21:16.530Z,997.00
2019-02-25T03:22:16.525Z,996.93
2019-02-25T03:23:16.556Z,996.89
2019-02-25T03:24:16.502Z,996.82
2019-02-25T03:25:16.500Z,996.91
2019-02-25T03:26:16.479Z,996.93
2019-02-25T03:27:16.463Z,996.95
2019-02-25T03:28:16.465Z,996.90
2019-02-25T03:29:16.481Z,997.02
2019-02-25T03:30:16.439Z,996.90
2019-02-25T03:31:16.424Z,997.00
2019-02-25T03:32:16.419Z,997.08
2019-02-25T03:33:16.426Z,997.02
2019-02-25T03:34:16.392Z,996.98
2019-02-25T03:35:16.454Z,997.03
2019-02-25T03:36:16.372Z,996.99
2019-02-25T03:37:16.359Z,997.07
2019-02-25T03:38:16.350Z,997.05
2019-02-25T03:39:16.351Z,997.00
2019-02-25T03:40:16.425Z,996.97
2019-02-25T03:41:16.330Z,996.93
2019-02-25T03:42:16.310Z,997.00
2019-02-25T03:43:16.301Z,996.97
2019-02-25T03:44:16.282Z,996.97
2019-02-25T03:45:16.282Z,996.86
2019-02-25T03:46:16.302Z,997.03
2019-02-25T03:47:16.253Z,996.90
2019-02-25T03:48:16.243Z,996.90
2019-02-25T03:49:16.225Z,996.93
2019-02-25T03:50:16.224Z,996.96
2019-02-25T03:51:28.351Z,996.89
2019-02-25T03:52:16.197Z,996.96
2019-02-25T03:53:16.189Z,997.01
2019-02-25T03:54:16.177Z,997.00
2019-02-25T03:55:16.188Z,997.05
2019-02-25T03:56:16.165Z,997.01
2019-02-25T03:57:16.334Z,997.11
2019-02-25T03:58:16.132Z,996.99
2019-02-25T03:59:16.129Z,997.03
2019-02-25T04:00:16.111Z,997.10
2019-02-25T04:01:16.096Z,997.07
2019-02-25T04:02:16.088Z,997.03
2019-02-25T04:03:16.082Z,997.06
2019-02-25T04:04:16.079Z,997.03
2019-02-25T04:05:16.057Z,997.01
2019-02-25T04:06:16.045Z,996.94
2019-02-25T04:07:16.034Z,996.91
2019-02-25T04:08:16.197Z,996.91
2019-02-25T04:09:16.010Z,996.94
2019-02-25T04:10:16.042Z,997.07
2019-02-25T04:11:15.986Z,996.91
2019-02-25T04:12:15.977Z,996.94
2019-02-25T04:13:15.970Z,996.87
2019-02-25T04:14:16.126Z,997.02
2019-02-25T04:15:15.951Z,996.94
2019-02-25T04:16:15.966Z,996.94
2019-02-25T04:17:15.922Z,996.95
2019-02-25T04:18:15.913Z,996.89
2019-02-25T04:19:15.900Z,996.89
2019-02-25T04:20:15.927Z,996.96
2019-02-25T04:21:15.879Z,997.00
2019-02-25T04:22:26.460Z,997.00
2019-02-25T04:23:15.859Z,997.00
2019-02-25T04:24:15.848Z,996.85
2019-02-25T04:25:15.871Z,997.06
2019-02-25T04:26:15.836Z,997.08
2019-02-25T04:27:15.815Z,997.05
2019-02-25T04:28:15.803Z,997.01
2019-02-25T04:29:15.811Z,997.01
2019-02-25T04:30:15.785Z,997.08
2019-02-25T04:31:15.782Z,997.10
2019-02-25T04:32:15.759Z,996.95
2019-02-25T04:33:15.750Z,997.06
2019-02-25T04:34:15.746Z,997.01
2019-02-25T04:35:15.727Z,996.99
2019-02-25T04:36:15.756Z,997.08
2019-02-25T04:37:15.703Z,997.05
2019-02-25T04:38:15.697Z,997.06
2019-02-25T04:39:15.689Z,996.96
2019-02-25T04:40:15.683Z,997.17
2019-02-25T04:41:15.928Z,997.05
2019-02-25T04:42:15.685Z,997.11
2019-02-25T04:43:15.647Z,997.08
2019-02-25T04:44:15.629Z,997.13
2019-02-25T04:45:15.622Z,997.09
2019-02-25T04:46:15.623Z,997.18
2019-02-25T04:47:15.601Z,997.09
2019-02-25T04:48:15.624Z,997.09
2019-02-25T04:49:15.575Z,997.03
2019-02-25T04:50:15.573Z,997.18
2019-02-25T04:51:15.579Z,997.09
2019-02-25T04:52:15.547Z,997.07
2019-02-25T04:53:25.900Z,997.11
2019-02-25T04:54:15.518Z,997.09
2019-02-25T04:55:15.513Z,997.08
2019-02-25T04:56:15.504Z,997.19
2019-02-25T04:57:15.488Z,997.06
2019-02-25T04:58:15.506Z,997.04
2019-02-25T04:59:15.502Z,997.09
2019-02-25T05:00:15.453Z,997.02
2019-02-25T05:01:15.449Z,997.03
2019-02-25T05:02:15.432Z,997.09
2019-02-25T05:03:15.420Z,997.24
2019-02-25T05:04:15.426Z,997.12
2019-02-25T05:05:15.425Z,996.95
2019-02-25T05:06:15.409Z,997.14
2019-02-25T05:07:15.379Z,997.16
2019-02-25T05:08:15.376Z,997.16
2019-02-25T05:09:15.355Z,997.16
2019-02-25T05:10:15.349Z,997.16
2019-02-25T05:11:15.369Z,997.19
2019-02-25T05:12:15.370Z,997.14
2019-02-25T05:13:15.319Z,997.18
2019-02-25T05:14:15.307Z,997.19
2019-02-25T05:15:15.290Z,997.18
2019-02-25T05:16:15.284Z,997.33
2019-02-25T05:17:15.276Z,997.20
2019-02-25T05:18:15.268Z,997.23
2019-02-25T05:19:15.249Z,997.20
2019-02-25T05:20:15.248Z,997.19
2019-02-25T05:21:15.228Z,997.18
2019-02-25T05:22:15.394Z,997.19
2019-02-25T05:23:15.200Z,997.21
2019-02-25T05:24:25.596Z,997.14
2019-02-25T05:25:15.181Z,997.15
2019-02-25T05:26:15.174Z,997.16
2019-02-25T05:27:15.161Z,997.06
2019-02-25T05:28:15.186Z,997.17
2019-02-25T05:29:15.151Z,997.13
2019-02-25T05:30:15.135Z,997.10
2019-02-25T05:31:15.116Z,997.12
2019-02-25T05:32:15.121Z,997.15
2019-02-25T05:33:15.092Z,997.09
2019-02-25T05:34:15.121Z,997.17
2019-02-25T05:35:15.078Z,997.18
2019-02-25T05:36:15.072Z,997.08
2019-02-25T05:37:15.061Z,996.99
2019-02-25T05:38:15.044Z,997.17
2019-02-25T05:39:15.032Z,997.18
2019-02-25T05:40:15.034Z,997.24
2019-02-25T05:41:15.013Z,997.18
2019-02-25T05:42:15.003Z,997.20
2019-02-25T05:43:14.998Z,997.19
2019-02-25T05:44:14.977Z,997.07
2019-02-25T05:45:15.014Z,997.14
2019-02-25T05:46:14.953Z,997.23
2019-02-25T05:47:15.888Z,997.20
2019-02-25T05:48:14.928Z,997.18
2019-02-25T05:49:14.934Z,997.23
2019-02-25T05:50:14.919Z,997.23
2019-02-25T05:51:14.937Z,997.25
2019-02-25T05:52:14.889Z,997.23
2019-02-25T05:53:14.880Z,997.23
2019-02-25T05:54:14.871Z,997.23
2019-02-25T05:55:25.718Z,997.18
2019-02-25T05:56:14.848Z,997.33
2019-02-25T05:57:14.846Z,997.18
2019-02-25T05:58:14.825Z,997.14
2019-02-25T05:59:14.810Z,997.22
2019-02-25T06:00:14.824Z,997.11
2019-02-25T06:01:14.792Z,997.26
2019-02-25T06:02:14.797Z,997.18
2019-02-25T06:03:14.785Z,997.31
2019-02-25T06:04:14.753Z,997.22
2019-02-25T06:05:14.787Z,997.21
2019-02-25T06:06:14.741Z,997.00
2019-02-25T06:07:14.727Z,997.08
2019-02-25T06:08:14.771Z,997.09
2019-02-25T06:09:14.702Z,997.13
2019-02-25T06:10:15.404Z,997.25
2019-02-25T06:11:14.682Z,997.29
2019-02-25T06:12:14.669Z,997.10
2019-02-25T06:13:14.661Z,997.07
2019-02-25T06:14:14.699Z,997.17
2019-02-25T06:15:14.639Z,997.08
2019-02-25T06:16:14.623Z,997.15
2019-02-25T06:17:14.620Z,997.10
2019-02-25T06:18:14.604Z,997.12
2019-02-25T06:19:14.591Z,997.06
2019-02-25T06:20:14.645Z,997.06
2019-02-25T06:21:14.570Z,997.10
2019-02-25T06:22:14.559Z,997.10
2019-02-25T06:23:14.551Z,997.14
2019-02-25T06:24:14.543Z,997.13
2019-02-25T06:25:14.548Z,997.07
2019-02-25T06:26:25.115Z,997.21
2019-02-25T06:27:14.509Z,997.18
2019-02-25T06:28:14.501Z,997.24
2019-02-25T06:29:14.483Z,997.13
2019-02-25T06:30:14.470Z,997.35
2019-02-25T06:31:14.484Z,997.21
2019-02-25T06:32:14.624Z,997.11
2019-02-25T06:33:14.442Z,997.11
2019-02-25T06:34:14.444Z,997.20
2019-02-25T06:35:14.421Z,997.19
2019-02-25T06:36:14.411Z,997.16
2019-02-25T06:37:14.397Z,997.19
2019-02-25T06:38:14.391Z,997.20
2019-02-25T06:39:14.385Z,997.22
2019-02-25T06:40:15.588Z,997.02
2019-02-25T06:41:14.357Z,997.22
2019-02-25T06:42:14.340Z,997.22
2019-02-25T06:43:14.372Z,997.13
2019-02-25T06:44:14.318Z,997.14
2019-02-25T06:45:14.319Z,997.19
2019-02-25T06:46:14.306Z,997.27
2019-02-25T06:47:14.290Z,997.12
2019-02-25T06:48:14.282Z,997.18
2019-02-25T06:49:14.308Z,997.21
2019-02-25T06:50:14.261Z,997.18
2019-02-25T06:51:14.251Z,997.22
2019-02-25T06:52:14.235Z,997.10
2019-02-25T06:53:14.228Z,997.15
2019-02-25T06:54:14.216Z,997.08
2019-02-25T06:55:14.244Z,997.18
2019-02-25T06:56:14.189Z,997.13
2019-02-25T06:57:26.114Z,997.11
2019-02-25T06:58:14.169Z,997.13
2019-02-25T06:59:14.162Z,997.12
2019-02-25T07:00:14.151Z,997.23
2019-02-25T07:01:14.182Z,997.11
2019-02-25T07:02:14.129Z,997.09
2019-02-25T07:03:14.121Z,997.01
2019-02-25T07:04:14.114Z,997.01
2019-02-25T07:05:14.095Z,997.05
2019-02-25T07:06:14.085Z,997.11
2019-02-25T07:07:14.107Z,997.20
2019-02-25T07:08:14.059Z,997.14
2019-02-25T07:09:14.069Z,997.13
2019-02-25T07:10:14.045Z,997.01
2019-02-25T07:11:14.036Z,997.17
2019-02-25T07:12:14.017Z,997.17
2019-02-25T07:13:14.049Z,997.10
2019-02-25T07:14:13.995Z,997.27
2019-02-25T07:15:13.990Z,997.23
2019-02-25T07:16:14.956Z,997.20
2019-02-25T07:17:13.964Z,997.26
2019-02-25T07:18:13.957Z,997.13
2019-02-25T07:19:13.959Z,997.21
2019-02-25T07:20:13.935Z,997.07
2019-02-25T07:21:13.929Z,997.08
2019-02-25T07:22:13.914Z,997.09
2019-02-25T07:23:13.898Z,997.09
2019-02-25T07:24:13.891Z,997.14
2019-02-25T07:25:13.914Z,997.10
2019-02-25T07:26:13.870Z,997.16
2019-02-25T07:27:13.872Z,997.08
2019-02-25T07:28:24.931Z,997.12
2019-02-25T07:29:13.841Z,997.06
2019-02-25T07:30:13.825Z,997.11
2019-02-25T07:31:13.853Z,997.16
2019-02-25T07:32:13.801Z,997.17
2019-02-25T07:33:13.804Z,997.21
2019-02-25T07:34:13.785Z,997.23
2019-02-25T07:35:13.771Z,997.19
2019-02-25T07:36:13.771Z,997.11
2019-02-25T07:37:13.767Z,997.26
2019-02-25T07:38:13.741Z,997.20
2019-02-25T07:39:13.732Z,997.28
2019-02-25T07:40:13.718Z,997.19
2019-02-25T07:41:13.711Z,997.17
2019-02-25T07:42:13.695Z,997.17
2019-02-25T07:43:15.388Z,997.27
2019-02-25T07:44:13.678Z,997.26
2019-02-25T07:45:13.666Z,997.23
2019-02-25T07:46:13.650Z,997.22
2019-02-25T07:47:13.646Z,997.26
2019-02-25T07:48:13.639Z,997.17
2019-02-25T07:49:13.636Z,997.19
2019-02-25T07:50:13.610Z,997.24
2019-02-25T07:51:13.598Z,997.22
2019-02-25T07:52:13.588Z,997.25
2019-02-25T07:53:13.579Z,997.19
2019-02-25T07:54:13.603Z,997.32
2019-02-25T07:55:13.553Z,997.37
2019-02-25T07:56:13.548Z,997.40
2019-02-25T07:57:13.536Z,997.28
2019-02-25T07:58:13.523Z,997.46
2019-02-25T07:59:24.556Z,997.44
2019-02-25T08:00:13.502Z,997.34
2019-02-25T08:01:13.494Z,997.32
2019-02-25T08:02:13.483Z,997.38
2019-02-25T08:03:13.475Z,997.41
2019-02-25T08:04:13.455Z,997.40
2019-02-25T08:05:13.491Z,997.43
2019-02-25T08:06:13.434Z,997.41
2019-02-25T08:07:13.426Z,997.46
2019-02-25T08:08:13.423Z,997.53
2019-02-25T08:09:13.405Z,997.69
2019-02-25T08:10:13.393Z,997.59
2019-02-25T08:11:13.421Z,997.48
2019-02-25T08:12:13.374Z,997.58
2019-02-25T08:13:13.370Z,997.61
2019-02-25T08:14:13.351Z,997.64
2019-02-25T08:15:13.348Z,997.61
2019-02-25T08:16:13.330Z,997.56
2019-02-25T08:17:13.328Z,997.68
2019-02-25T08:18:13.350Z,997.61
2019-02-25T08:19:13.300Z,997.52
2019-02-25T08:20:13.290Z,997.72
2019-02-25T08:21:13.282Z,997.68
2019-02-25T08:22:14.009Z,997.76
2019-02-25T08:23:13.264Z,997.71
2019-02-25T08:24:13.261Z,997.90
2019-02-25T08:25:13.241Z,997.79
2019-02-25T08:26:13.225Z,997.76
2019-02-25T08:27:13.210Z,997.76
2019-02-25T08:28:13.215Z,997.76
2019-02-25T08:29:13.192Z,997.79
2019-02-25T08:30:24.057Z,997.78
2019-02-25T08:31:13.171Z,997.70
2019-02-25T08:32:13.157Z,997.72
2019-02-25T08:33:13.144Z,997.74
2019-02-25T08:34:18.761Z,997.87
2019-02-25T08:35:14.133Z,997.83
2019-02-25T08:36:13.119Z,997.86
2019-02-25T08:37:13.099Z,997.82
2019-02-25T08:38:13.099Z,997.83
2019-02-25T08:39:13.084Z,997.84
2019-02-25T08:40:13.073Z,997.89
2019-02-25T08:41:13.068Z,997.95
2019-02-25T08:42:13.089Z,997.91
2019-02-25T08:43:13.039Z,997.92
2019-02-25T08:44:13.039Z,997.97
2019-02-25T08:45:13.016Z,998.00
2019-02-25T08:46:13.009Z,997.84
2019-02-25T08:47:13.004Z,998.05
2019-02-25T08:48:13.023Z,998.05
2019-02-25T08:49:12.985Z,997.99
2019-02-25T08:50:12.976Z,998.13
2019-02-25T08:51:12.972Z,998.07
2019-02-25T08:52:12.938Z,998.02
2019-02-25T08:53:12.930Z,997.98
2019-02-25T08:54:12.961Z,998.02
2019-02-25T08:55:12.907Z,998.01
2019-02-25T08:56:12.909Z,998.01
2019-02-25T08:57:12.886Z,997.98
2019-02-25T08:58:12.875Z,997.95
2019-02-25T08:59:12.867Z,997.98
2019-02-25T09:00:13.040Z,998.06
2019-02-25T09:01:22.832Z,997.95
2019-02-25T09:02:12.832Z,998.02
2019-02-25T09:03:12.823Z,998.13
2019-02-25T09:04:12.812Z,998.01
2019-02-25T09:05:12.939Z,997.95
2019-02-25T09:06:12.829Z,997.96
2019-02-25T09:07:12.784Z,998.09
2019-02-25T09:08:12.770Z,997.95
2019-02-25T09:09:12.756Z,998.07
2019-02-25T09:10:13.524Z,998.09
2019-02-25T09:11:14.398Z,998.23
2019-02-25T09:12:12.895Z,998.21
2019-02-25T09:13:12.711Z,997.98
2019-02-25T09:14:12.697Z,997.95
2019-02-25T09:15:12.695Z,998.03
2019-02-25T09:16:12.675Z,998.07
2019-02-25T09:17:12.676Z,998.10
2019-02-25T09:18:12.693Z,998.10
2019-02-25T09:19:12.643Z,998.22
2019-02-25T09:20:12.634Z,998.27
2019-02-25T09:21:12.627Z,998.04
2019-02-25T09:22:12.618Z,998.12
2019-02-25T09:23:12.600Z,998.04
2019-02-25T09:24:12.597Z,997.98
2019-02-25T09:25:12.582Z,997.98
2019-02-25T09:26:12.572Z,998.04
2019-02-25T09:27:12.563Z,997.94
2019-02-25T09:28:12.665Z,997.97
2019-02-25T09:29:12.572Z,997.98
2019-02-25T09:30:12.526Z,998.05
2019-02-25T09:31:12.510Z,998.11
2019-02-25T09:32:22.573Z,998.00
2019-02-25T09:33:12.493Z,997.90
2019-02-25T09:34:12.483Z,997.95
2019-02-25T09:35:12.504Z,998.03
2019-02-25T09:36:12.466Z,998.00
2019-02-25T09:37:12.448Z,997.99
2019-02-25T09:38:12.435Z,998.00
2019-02-25T09:39:12.425Z,998.07
2019-02-25T09:40:12.416Z,998.12
2019-02-25T09:41:12.435Z,998.05
2019-02-25T09:42:12.392Z,997.99
2019-02-25T09:43:12.381Z,998.17
2019-02-25T09:44:12.372Z,998.03
2019-02-25T09:45:12.356Z,998.25
2019-02-25T09:46:12.350Z,998.32
2019-02-25T09:47:12.372Z,998.35
2019-02-25T09:48:12.324Z,998.07
2019-02-25T09:49:12.313Z,997.99
2019-02-25T09:50:12.301Z,998.16
2019-02-25T09:51:12.304Z,998.26
2019-02-25T09:52:12.285Z,998.27
2019-02-25T09:53:12.317Z,998.28
2019-02-25T09:54:12.259Z,998.43
2019-02-25T09:55:12.246Z,998.50
2019-02-25T09:56:12.235Z,998.44
2019-02-25T09:57:12.230Z,998.57
2019-02-25T09:58:12.214Z,998.59
2019-02-25T09:59:12.245Z,998.63
2019-02-25T10:00:12.198Z,998.52
2019-02-25T10:01:12.189Z,998.74
2019-02-25T10:02:12.176Z,998.65
2019-02-25T10:03:23.154Z,998.71
2019-02-25T10:04:12.157Z,998.78
2019-02-25T10:05:12.150Z,998.80
2019-02-25T10:06:12.987Z,998.63
2019-02-25T10:07:12.136Z,998.51
2019-02-25T10:08:12.111Z,998.87
2019-02-25T10:09:12.101Z,998.52
2019-02-25T10:10:12.142Z,998.94
2019-02-25T10:11:12.077Z,999.00
2019-02-25T10:12:12.068Z,998.96
2019-02-25T10:13:12.055Z,998.91
2019-02-25T10:14:12.054Z,998.61
2019-02-25T10:15:12.034Z,998.68
2019-02-25T10:16:12.201Z,998.70
2019-02-25T10:17:12.018Z,998.78
2019-02-25T10:18:12.001Z,998.88
2019-02-25T10:19:11.996Z,998.96
2019-02-25T10:20:11.987Z,998.97
2019-02-25T10:21:11.976Z,999.07
2019-02-25T10:22:11.980Z,999.08
2019-02-25T10:23:11.950Z,999.04
2019-02-25T10:24:11.944Z,999.16
2019-02-25T10:25:11.931Z,999.12
2019-02-25T10:26:11.925Z,999.23
2019-02-25T10:27:11.908Z,999.10
2019-02-25T10:28:19.236Z,999.18
2019-02-25T10:29:11.894Z,999.27
2019-02-25T10:30:11.884Z,999.24
2019-02-25T10:31:13.059Z,999.29
2019-02-25T10:32:11.863Z,999.33
2019-02-25T10:33:11.850Z,999.26
2019-02-25T10:34:19.339Z,999.32
2019-02-25T10:35:11.826Z,999.25
2019-02-25T10:36:11.816Z,999.33
2019-02-25T10:37:13.120Z,999.35
2019-02-25T10:38:11.794Z,999.33
2019-02-25T10:39:13.039Z,999.39
2019-02-25T10:40:13.245Z,999.40
2019-02-25T10:41:11.770Z,999.33
2019-02-25T10:42:11.767Z,999.54
2019-02-25T10:43:11.753Z,999.59
2019-02-25T10:44:11.740Z,999.32
2019-02-25T10:45:13.509Z,999.13
2019-02-25T10:46:13.848Z,999.49
2019-02-25T10:47:13.534Z,999.13
2019-02-25T10:48:11.701Z,999.16
2019-02-25T10:49:11.884Z,999.13
2019-02-25T10:50:11.681Z,999.11
2019-02-25T10:51:13.567Z,999.08
2019-02-25T10:52:12.947Z,999.41
2019-02-25T10:53:13.571Z,999.05
2019-02-25T10:54:11.642Z,999.15
2019-02-25T10:55:11.622Z,999.02
2019-02-25T10:56:11.617Z,999.06
2019-02-25T10:57:11.616Z,999.07
2019-02-25T10:58:11.594Z,999.10
2019-02-25T10:59:11.579Z,999.20
2019-02-25T11:00:12.139Z,999.13
2019-02-25T11:01:13.510Z,999.15
2019-02-25T11:02:13.699Z,999.09
2019-02-25T11:03:12.962Z,999.14
2019-02-25T11:04:11.524Z,999.22
2019-02-25T11:05:23.284Z,999.16
2019-02-25T11:06:11.499Z,999.16
2019-02-25T11:07:11.494Z,999.26
2019-02-25T11:08:13.714Z,999.27
2019-02-25T11:09:13.292Z,999.28
2019-02-25T11:10:12.012Z,999.34
2019-02-25T11:11:11.445Z,999.39
2019-02-25T11:12:11.452Z,999.41
2019-02-25T11:13:11.427Z,999.35
2019-02-25T11:14:11.453Z,999.37
2019-02-25T11:15:12.057Z,999.51
2019-02-25T11:16:11.976Z,999.42
2019-02-25T11:17:11.390Z,999.38
2019-02-25T11:18:11.368Z,999.44
2019-02-25T11:19:11.366Z,999.38
2019-02-25T11:20:11.359Z,999.46
2019-02-25T11:21:11.349Z,999.45
2019-02-25T11:22:12.119Z,999.51
2019-02-25T11:23:12.818Z,999.51
2019-02-25T11:24:11.309Z,999.55
2019-02-25T11:25:11.335Z,999.54
2019-02-25T11:26:11.281Z,999.54
2019-02-25T11:27:11.270Z,999.58
2019-02-25T11:28:22.839Z,999.62
2019-02-25T11:29:13.780Z,999.57
2019-02-25T11:30:12.099Z,999.63
2019-02-25T11:31:11.265Z,999.69
2019-02-25T11:32:11.217Z,999.53
2019-02-25T11:33:11.205Z,999.74
2019-02-25T11:34:11.197Z,999.92
2019-02-25T11:35:12.929Z,999.62
2019-02-25T11:36:22.323Z,999.62
2019-02-25T11:37:11.165Z,999.67
2019-02-25T11:38:11.148Z,1000.02
2019-02-25T11:39:11.141Z,1000.11
2019-02-25T11:40:11.129Z,1000.15
2019-02-25T11:41:11.366Z,1000.11
2019-02-25T11:42:13.518Z,1000.19
2019-02-25T11:43:13.232Z,1000.20
2019-02-25T11:44:11.084Z,1000.08
2019-02-25T11:45:11.078Z,1000.03
2019-02-25T11:46:11.084Z,1000.16
2019-02-25T11:47:11.061Z,1000.16
2019-02-25T11:48:11.081Z,1000.21
2019-02-25T11:49:11.040Z,1000.26
2019-02-25T11:50:11.027Z,1000.28
2019-02-25T11:51:11.012Z,1000.25
2019-02-25T11:52:11.016Z,1000.33
2019-02-25T11:53:10.993Z,1000.35
2019-02-25T11:54:11.022Z,1000.34
2019-02-25T11:55:10.970Z,1000.40
2019-02-25T11:56:10.965Z,1000.45
2019-02-25T11:57:10.958Z,1000.41
2019-02-25T11:58:10.940Z,1000.51
2019-02-25T11:59:10.928Z,1000.46
2019-02-25T12:00:10.966Z,1000.53
2019-02-25T12:01:10.924Z,1000.53
2019-02-25T12:02:10.907Z,1000.50
2019-02-25T12:03:10.892Z,1000.61
2019-02-25T12:04:10.908Z,1000.56
2019-02-25T12:05:10.867Z,1000.68
2019-02-25T12:06:10.913Z,1000.64
2019-02-25T12:07:21.390Z,1000.69
2019-02-25T12:08:10.839Z,1000.68
2019-02-25T12:09:10.824Z,1000.81
2019-02-25T12:10:10.820Z,1000.50
2019-02-25T12:11:10.804Z,1000.74
2019-02-25T12:12:10.818Z,1000.77
2019-02-25T12:13:10.799Z,1000.74
2019-02-25T12:14:10.786Z,1000.81
2019-02-25T12:15:10.767Z,1000.73
2019-02-25T12:16:10.761Z,1000.73
2019-02-25T12:17:10.762Z,1000.74
2019-02-25T12:18:10.849Z,1000.84
2019-02-25T12:19:17.793Z,1000.87
2019-02-25T12:20:11.723Z,1000.87
2019-02-25T12:21:10.723Z,1000.79
2019-02-25T12:22:10.695Z,1000.98
2019-02-25T12:23:10.691Z,1001.04
2019-02-25T12:24:10.718Z,1000.80
2019-02-25T12:25:10.668Z,1000.44
2019-02-25T12:26:10.663Z,1000.53